Map

Track Data

SID SEASON NUMBER BASIN SUBBASIN NAME ISO_TIME NATURE LAT LON WMO_WIND WMO_PRES WMO_AGENCY TRACK_TYPE DIST2LAND LANDFALL IFLAG USA_AGENCY USA_ATCF_ID USA_LAT USA_LON USA_RECORD USA_STATUS USA_WIND USA_PRES USA_SSHS USA_R34_NE USA_R34_SE USA_R34_SW USA_R34_NW USA_R50_NE USA_R50_SE USA_R50_SW USA_R50_NW USA_R64_NE USA_R64_SE USA_R64_SW USA_R64_NW USA_POCI USA_ROCI USA_RMW USA_EYE TOKYO_LAT TOKYO_LON TOKYO_GRADE TOKYO_WIND TOKYO_PRES TOKYO_R50_DIR TOKYO_R50_LONG TOKYO_R50_SHORT TOKYO_R30_DIR TOKYO_R30_LONG TOKYO_R30_SHORT TOKYO_LAND CMA_LAT CMA_LON CMA_CAT CMA_WIND CMA_PRES HKO_LAT HKO_LON HKO_CAT HKO_WIND HKO_PRES NEWDELHI_LAT NEWDELHI_LON NEWDELHI_GRADE NEWDELHI_WIND NEWDELHI_PRES NEWDELHI_CI NEWDELHI_DP NEWDELHI_POCI REUNION_LAT REUNION_LON REUNION_TYPE REUNION_WIND REUNION_PRES REUNION_TNUM REUNION_CI REUNION_RMW REUNION_R34_NE REUNION_R34_SE REUNION_R34_SW REUNION_R34_NW REUNION_R50_NE REUNION_R50_SE REUNION_R50_SW REUNION_R50_NW REUNION_R64_NE REUNION_R64_SE REUNION_R64_SW REUNION_R64_NW BOM_LAT BOM_LON BOM_TYPE BOM_WIND BOM_PRES BOM_TNUM BOM_CI BOM_RMW BOM_R34_NE BOM_R34_SE BOM_R34_SW BOM_R34_NW BOM_R50_NE BOM_R50_SE BOM_R50_SW BOM_R50_NW BOM_R64_NE BOM_R64_SE BOM_R64_SW BOM_R64_NW BOM_ROCI BOM_POCI BOM_EYE BOM_POS_METHOD BOM_PRES_METHOD NADI_LAT NADI_LON NADI_CAT NADI_WIND NADI_PRES WELLINGTON_LAT WELLINGTON_LON WELLINGTON_WIND WELLINGTON_PRES DS824_LAT DS824_LON DS824_STAGE DS824_WIND DS824_PRES TD9636_LAT TD9636_LON TD9636_STAGE TD9636_WIND TD9636_PRES TD9635_LAT TD9635_LON TD9635_WIND TD9635_PRES TD9635_ROCI NEUMANN_LAT NEUMANN_LON NEUMANN_CLASS NEUMANN_WIND NEUMANN_PRES MLC_LAT MLC_LON MLC_CLASS MLC_WIND MLC_PRES USA_GUST BOM_GUST BOM_GUST_PER REUNION_GUST REUNION_GUST_PER USA_SEAHGT USA_SEARAD_NE USA_SEARAD_SE USA_SEARAD_SW USA_SEARAD_NW STORM_SPEED STORM_DIR
1956220N21088 1956 70 NI BB NOT_NAMED 1956-08-06 18:00:00 TS 20.8000 88.0000 main 91 91 O________O____ jtwc_io IO101956 20.8000 88.0000 -1 20.8000 88.0000 TC 0 0
1956220N21088 1956 70 NI BB NOT_NAMED 1956-08-06 21:00:00 TS 20.7950 88.0201 main 91 80 P________P____ IO101956 20.7950 88.0201 -1 20.7950 88.0201 TC 1 0
1956220N21088 1956 70 NI BB NOT_NAMED 1956-08-07 00:00:00 TS 20.9000 88.0000 main 80 54 O________O____ jtwc_io IO101956 20.9000 88.0000 -1 20.9000 88.0000 TC 25 4 345
1956220N21088 1956 70 NI BB NOT_NAMED 1956-08-07 03:00:00 TS 21.2022 87.9019 main 54 0 P________PO___ IO101956 21.2024 87.9021 -1 21.2024 87.9021 TC 25 21.2000 87.9000 1 9 341
1956220N21088 1956 70 NI BB NOT_NAMED 1956-08-07 06:00:00 TS 21.7374 87.6867 main 0 0 O________OP___ jtwc_io IO101956 21.7000 87.7000 -1 21.7000 87.7000 TC 25 21.8868 87.6334 1 13 339
1956220N21088 1956 70 NI BB NOT_NAMED 1956-08-07 09:00:00 TS 22.4459 87.3892 main 0 0 P________PP___ IO101956 22.4148 87.4105 -1 22.4148 87.4105 TC 25 22.5289 87.3325 1 15 335
1956220N21088 1956 70 NI BB NOT_NAMED 1956-08-07 12:00:00 TS 23.0939 86.9884 main 0 0 O________OP___ jtwc_io IO101956 23.1000 87.0000 -1 23.1000 87.0000 TC 25 23.0816 86.9653 1 13 322
1956220N21088 1956 70 NI BB NOT_NAMED 1956-08-07 15:00:00 TS 23.4932 86.5015 main 0 0 P________PO___ IO101956 23.4898 86.5022 -1 23.4898 86.5022 TC 25 23.5000 86.5000 1 12 302
1956220N21088 1956 70 NI BB NOT_NAMED 1956-08-07 18:00:00 TS 23.7180 85.9068 main 0 0 O________OP___ jtwc_io IO101956 23.7000 85.9000 -1 23.7000 85.9000 TC 25 23.7541 85.9203 1 12 287
1956220N21088 1956 70 NI BB NOT_NAMED 1956-08-07 21:00:00 TS 23.8551 85.2135 main 0 0 P________PP___ IO101956 23.8454 85.1848 -1 23.8454 85.1848 TC 25 23.8744 85.2708 1 13 278
1956220N21088 1956 70 NI BB NOT_NAMED 1956-08-08 00:00:00 TS 23.9024 84.5370 main 0 0 O________OP___ jtwc_io IO101956 23.9000 84.5000 -1 23.9000 84.5000 TC 25 23.9072 84.6110 1 11 273
1956220N21088 1956 70 NI BB NOT_NAMED 1956-08-08 03:00:00 TS 23.9146 84.0082 main 0 0 P________PO___ IO101956 23.9220 84.0124 -1 23.9220 84.0124 TC 25 23.9000 84.0000 1 9 270
1956220N21088 1956 70 NI BB NOT_NAMED 1956-08-08 06:00:00 TS 23.9010 83.5708 main 0 0 O________OP___ jtwc_io IO101956 23.9000 83.6000 -1 23.9000 83.6000 TC 25 23.9031 83.5123 1 8 266
1956220N21088 1956 70 NI BB NOT_NAMED 1956-08-08 09:00:00 TS 23.8511 83.1218 main 0 0 P________PP___ IO101956 23.8349 83.1422 -1 23.8349 83.1422 TC 25 23.8835 83.0810 1 8 265
1956220N21088 1956 70 NI BB NOT_NAMED 1956-08-08 12:00:00 TS 23.8241 82.6947 main 0 0 O________OP___ jtwc_io IO101956 23.8000 82.7000 -1 23.8000 82.7000 TC 25 23.8722 82.6842 1 8 272
1956220N21088 1956 70 NI BB NOT_NAMED 1956-08-08 15:00:00 TS 23.8749 82.2950 main 0 0 P________PO___ IO101956 23.8623 82.2925 -1 23.8623 82.2925 TC 25 23.9000 82.3000 1 8 284
1956220N21088 1956 70 NI BB NOT_NAMED 1956-08-08 18:00:00 TS 24.0050 81.8857 main 0 0 O________OP___ jtwc_io IO101956 24.0000 81.9000 -1 24.0000 81.9000 TC 25 24.0151 81.8571 1 8 293
1956220N21088 1956 70 NI BB NOT_NAMED 1956-08-08 21:00:00 TS 24.1901 81.4705 main 0 0 P________PP___ IO101956 24.2000 81.4927 -1 24.2000 81.4927 TC 25 24.1703 81.4262 1 8 297
1956220N21088 1956 70 NI BB NOT_NAMED 1956-08-09 00:00:00 TS 24.3801 81.0773 main 0 0 O________OP___ jtwc_io IO101956 24.4000 81.1000 -1 24.4000 81.1000 TC 25 24.3403 81.0320 1 8 295
1956220N21088 1956 70 NI BB NOT_NAMED 1956-08-09 03:00:00 TS 24.5100 80.7082 main 0 0 P________PO___ IO101956 24.5150 80.7124 -1 24.5150 80.7124 TC 25 24.5000 80.7000 1 6 290
1956220N21088 1956 70 NI BB NOT_NAMED 1956-08-09 06:00:00 TS 24.5992 80.4145 main 0 0 O________OP___ jtwc_io IO101956 24.6000 80.4000 -1 24.6000 80.4000 TC 25 24.5976 80.4435 1 5 292
1956220N21088 1956 70 NI BB NOT_NAMED 1956-08-09 09:00:00 TS 24.6897 80.2256 main 0 0 P________PP___ IO101956 24.6924 80.2124 -1 24.6924 80.2124 TC 25 24.6844 80.2519 1 3 304
1956220N21088 1956 70 NI BB NOT_NAMED 1956-08-09 12:00:00 TS 24.7930 80.1031 main 0 0 O________OP___ jtwc_io IO101956 24.8000 80.1000 -1 24.8000 80.1000 TC 25 24.7790 80.1093 1 3 318
1956220N21088 1956 70 NI BB NOT_NAMED 1956-08-09 15:00:00 TS 24.9233 79.9950 main 0 0 P________PO___ IO101956 24.9350 79.9925 -1 24.9350 79.9925 TC 25 24.9000 80.0000 1 3 328
1956220N21088 1956 70 NI BB NOT_NAMED 1956-08-09 18:00:00 TS 25.0843 79.9040 main 0 0 O________OP___ jtwc_io IO101956 25.1000 79.9000 -1 25.1000 79.9000 TC 25 25.0608 79.9100 1 4 335
1956220N21088 1956 70 NI BB NOT_NAMED 1956-08-09 21:00:00 TS 25.2765 79.8156 main 0 0 P________PP___ IO101956 25.2925 79.8026 -1 25.2925 79.8026 TC 25 25.2552 79.8329 1 4 339
1956220N21088 1956 70 NI BB NOT_NAMED 1956-08-10 00:00:00 TS 25.4860 79.7322 main 0 0 O________OP___ jtwc_io IO101956 25.5000 79.7000 -1 25.5000 79.7000 TC 25 25.4720 79.7644 1 4 346
1956220N21088 1956 70 NI BB NOT_NAMED 1956-08-10 03:00:00 NR 25.7000 79.7000 main 0 __________O___ IO101956 -1 TC 25.7000 79.7000 1 4 351

About IBTrACS Database

This database is a web-friendly format of International Best Track Archive for Climate Stewardship (IBTrACS), a global best track data archive curated by NOAA dating back to 1842.

Updated: 2021-10-27